Theologos P . — SZNB — position and weather

sailwx.info

Track history (hours):
 
Tides and Currents Weather Stations Pressure Air Temp Water Temp Dewpoint Dewpoint Depression Visibility Wind Speed Wind Dir Waves Ship Positions

Theologos P .

Last reported at 2015-Jan-28 05:33 UTC. Time now 2015-Jan-28 06:42 UTC.
Position N 37°28' E 025°20'.

Length 118 m; draft 4.5 m.

Type: Ship. MMSI: 240521000.

Date/timePositionNaut miles runAvg speedWind from/ knotsBaromVisibWave heightAir tempDewpointWater temp
2015-Jan-28 05:33N 37°28' E 025°20'0 0.0
2015-Jan-28 04:33N 37°28' E 025°20'0 0.0
2015-Jan-28 03:33N 37°28' E 025°20'0 0.0
2015-Jan-28 02:33N 37°28' E 025°20'0 0.0
2015-Jan-28 01:33N 37°28' E 025°20'0 0.0
2015-Jan-28 00:33N 37°28' E 025°20'0 0.0
2015-Jan-27 23:33N 37°28' E 025°20'0 0.0
2015-Jan-27 22:33N 37°28' E 025°20'0 0.0
2015-Jan-27 21:33N 37°28' E 025°20'0 0.0
2015-Jan-27 20:33N 37°28' E 025°20'9 9.2
2015-Jan-27 19:33N 37°32' E 025°09'1616.2
2015-Jan-27 18:33N 37°42' E 024°53'4613.1
2015-Jan-27 15:03N 38°01' E 024°01'0 0.1
2015-Jan-27 10:16N 38°02' E 024°01'4215.1
2015-Jan-27 07:28N 37°44' E 024°50'1819.4
2015-Jan-27 06:33N 37°33' E 025°07'1111.3
2015-Jan-27 05:33N 37°28' E 025°20'0 0.0
2015-Jan-27 04:33N 37°28' E 025°20'0 0.0
2015-Jan-27 03:33N 37°28' E 025°20'0 0.0
2015-Jan-27 02:33N 37°28' E 025°20'0 0.0
2015-Jan-27 01:33N 37°28' E 025°20'0 0.0
2015-Jan-27 00:33N 37°28' E 025°20'0 0.0
2015-Jan-26 23:33N 37°28' E 025°20'0 0.0
2015-Jan-26 22:33N 37°28' E 025°20'0 0.0
2015-Jan-26 21:33N 37°28' E 025°20'8 8.2
2015-Jan-26 20:33N 37°31' E 025°10'1110.8
2015-Jan-26 19:34N 37°37' E 024°59'10 1.4
2015-Jan-26 12:25N 37°44' E 024°50'1719.4
2015-Jan-26 11:33N 37°33' E 025°06'1211.9
2015-Jan-26 10:33N 37°28' E 025°19'7 7.3
2015-Jan-26 09:33N 37°31' E 025°11'1414.1
2015-Jan-26 08:33N 37°40' E 024°57'7 0.4
2015-Jan-25 13:16N 37°43' E 024°50'1419.2
2015-Jan-25 12:33N 37°34' E 025°03'1313.0
2015-Jan-25 11:33N 37°28' E 025°17'2 1.8
2015-Jan-25 10:34N 37°28' E 025°19'9 8.9
2015-Jan-25 09:34N 37°32' E 025°10'1514.9
2015-Jan-25 08:33N 37°41' E 024°55'6 0.6
2015-Jan-24 23:32N 37°40' E 024°47'1818.1
2015-Jan-24 22:33N 37°31' E 025°07'1110.8
2015-Jan-24 21:33N 37°28' E 025°19'10 9.9
2015-Jan-24 20:34N 37°32' E 025°08'1716.7
2015-Jan-24 19:33N 37°43' E 024°52'17 3.1
2015-Jan-24 14:12N 37°53' E 024°35'7 8.8
2015-Jan-24 13:23N 37°52' E 024°44'1417.3
2015-Jan-24 12:33N 37°40' E 024°54'1515.0
2015-Jan-24 11:33N 37°32' E 025°10'9 8.9
2015-Jan-24 10:33N 37°28' E 025°19'9 9.0
2015-Jan-24 09:33N 37°32' E 025°10'1716.5
2015-Jan-24 08:33N 37°43' E 024°53'46 8.4
2015-Jan-24 03:09N 38°01' E 024°01'4810.5
2015-Jan-23 22:33N 37°38' E 024°54'1818.1
2015-Jan-23 21:33N 37°29' E 025°14'3 2.7
2015-Jan-23 20:33N 37°28' E 025°17'10 9.9
2015-Jan-23 19:33N 37°33' E 025°06'14 1.1
2015-Jan-23 07:33N 37°42' E 024°53'1616.3
2015-Jan-23 06:33N 37°32' E 025°10'9 8.8
2015-Jan-23 05:32N 37°28' E 025°20'0 0.0
2015-Jan-23 04:33N 37°28' E 025°20'0 0.0
2015-Jan-23 03:32N 37°28' E 025°20'0 0.0
2015-Jan-23 02:33N 37°28' E 025°20'0 0.0
2015-Jan-23 01:32N 37°28' E 025°20'0 0.0
2015-Jan-23 00:33N 37°28' E 025°20'0 0.0
2015-Jan-22 23:34N 37°28' E 025°20'0 0.0
2015-Jan-22 22:34N 37°28' E 025°20'0 0.0
2015-Jan-22 21:34N 37°28' E 025°20'9 9.2
2015-Jan-22 20:33N 37°32' E 025°09'9 9.3
2015-Jan-22 19:34N 37°36' E 024°59'35 3.4
2015-Jan-22 09:20N 37°56' E 024°22'1717.9
2015-Jan-22 08:22N 37°53' E 024°44'1011.5
2015-Jan-22 07:29N 37°44' E 024°50'1819.2
2015-Jan-22 06:33N 37°32' E 025°08'1010.1
2015-Jan-22 05:32N 37°28' E 025°20'0 0.0
2015-Jan-22 04:33N 37°28' E 025°20'0 0.0
2015-Jan-22 03:33N 37°28' E 025°20'0 0.0
2015-Jan-22 02:32N 37°28' E 025°20'0 0.0
2015-Jan-22 01:33N 37°28' E 025°20'0 0.0
2015-Jan-22 00:32N 37°28' E 025°20'0 0.0
2015-Jan-21 23:33N 37°28' E 025°20'0 0.0
2015-Jan-21 22:50N 37°28' E 025°20'0 0.0
2015-Jan-21 22:46N 37°28' E 025°20'0 0.0
2015-Jan-21 22:34N 37°28' E 025°20'0 0.0
2015-Jan-21 21:33N 37°28' E 025°20'1 0.9
2015-Jan-21 20:33N 37°28' E 025°18'10 9.7
2015-Jan-21 19:33N 37°32' E 025°08'1817.6
2015-Jan-21 18:33N 37°44' E 024°51'2813.4
2015-Jan-21 16:26N 37°56' E 024°19'15 3.8
2015-Jan-21 12:29N 38°01' E 024°01'43 8.8
2015-Jan-21 07:33N 37°44' E 024°51'1918.7
2015-Jan-21 06:33N 37°32' E 025°09'9 9.1
2015-Jan-21 05:33N 37°28' E 025°20'0 0.0
2015-Jan-21 04:33N 37°28' E 025°20'0 0.0
2015-Jan-21 03:33N 37°28' E 025°20'0 0.0
2015-Jan-21 02:33N 37°28' E 025°20'0 0.0
2015-Jan-21 01:33N 37°28' E 025°20'0 0.0
2015-Jan-21 00:33N 37°28' E 025°20'0 0.0
2015-Jan-20 23:33N 37°28' E 025°20'0 0.0
2015-Jan-20 22:33N 37°28' E 025°20'0 0.0
2015-Jan-20 21:33N 37°28' E 025°20'0 0.3
2015-Jan-20 20:33N 37°28' E 025°19'1110.6
2015-Jan-20 19:33N 37°32' E 025°07'1717.0
2015-Jan-20 18:33N 37°44' E 024°51'44 8.2
2015-Jan-20 13:14N 38°01' E 024°01'43 7.4
2015-Jan-20 07:29N 37°44' E 024°50'1819.5
2015-Jan-20 06:33N 37°32' E 025°08'1010.5
2015-Jan-20 05:33N 37°28' E 025°20'0 0.0
2015-Jan-20 04:33N 37°28' E 025°20'0 0.0
2015-Jan-20 03:33N 37°28' E 025°20'0 0.0
2015-Jan-20 02:34N 37°28' E 025°20'0 0.0
2015-Jan-20 01:33N 37°28' E 025°20'0 0.0
2015-Jan-20 00:33N 37°28' E 025°20'0 0.0
2015-Jan-19 23:33N 37°28' E 025°20'0 0.0
2015-Jan-19 22:33N 37°28' E 025°20'0 0.0
2015-Jan-19 21:33N 37°28' E 025°20'0 0.1
2015-Jan-19 20:33N 37°28' E 025°19'1110.8
2015-Jan-19 19:33N 37°32' E 025°07'1717.3
2015-Jan-19 18:33N 37°44' E 024°51'2713.2
2015-Jan-19 16:31N 37°56' E 024°20'13 2.1
2015-Jan-19 10:05N 38°00' E 024°04'1518.6
2015-Jan-19 09:15N 37°55' E 024°23'2413.4
2015-Jan-19 07:27N 37°44' E 024°50'1819.9
2015-Jan-19 06:33N 37°32' E 025°07'1110.8
2015-Jan-19 05:34N 37°28' E 025°20'0 0.0
2015-Jan-19 04:34N 37°28' E 025°20'0 0.0
2015-Jan-19 03:34N 37°28' E 025°20'0 0.0
2015-Jan-19 02:34N 37°28' E 025°20'0 0.0
2015-Jan-19 01:33N 37°28' E 025°20'0 0.0
2015-Jan-19 00:33N 37°28' E 025°20'0 0.0
2015-Jan-18 23:34N 37°28' E 025°20'0 0.0
2015-Jan-18 22:34N 37°28' E 025°20'0 0.0
2015-Jan-18 21:34N 37°28' E 025°20'0 0.0
2015-Jan-18 20:34N 37°28' E 025°20'1110.6
2015-Jan-18 19:33N 37°32' E 025°07'1717.2
2015-Jan-18 18:33N 37°44' E 024°51'6 0.9
2015-Jan-18 11:33N 37°39' E 024°56'1313.0
2015-Jan-18 10:33N 37°31' E 025°10'9 8.7
2015-Jan-18 09:34N 37°28' E 025°20'0 0.0
2015-Jan-18 08:32N 37°28' E 025°20'0 0.0
2015-Jan-18 07:34N 37°28' E 025°20'0 0.0
2015-Jan-18 06:34N 37°28' E 025°20'0 0.0
2015-Jan-18 05:34N 37°28' E 025°20'  
Track history (hours):
 
Tides and Currents Weather Stations Pressure Air Temp Water Temp Dewpoint Dewpoint Depression Visibility Wind Speed Wind Dir Waves Ship Positions

Theologos P .

Last reported at 2015-Jan-28 05:33 UTC. Time now 2015-Jan-28 06:42 UTC.
Position N 37°28' E 025°20'.

Length 118 m; draft 4.5 m.

Type: Ship. MMSI: 240521000.

Date/timePositionNaut miles runAvg speedWind from/ knotsBaromVisibWave heightAir tempDewpointWater temp
2015-Jan-28 05:33N 37°28' E 025°20'0 0.0
2015-Jan-28 04:33N 37°28' E 025°20'0 0.0
2015-Jan-28 03:33N 37°28' E 025°20'0 0.0
2015-Jan-28 02:33N 37°28' E 025°20'0 0.0
2015-Jan-28 01:33N 37°28' E 025°20'0 0.0
2015-Jan-28 00:33N 37°28' E 025°20'0 0.0
2015-Jan-27 23:33N 37°28' E 025°20'0 0.0
2015-Jan-27 22:33N 37°28' E 025°20'0 0.0
2015-Jan-27 21:33N 37°28' E 025°20'0 0.0
2015-Jan-27 20:33N 37°28' E 025°20'9 9.2
2015-Jan-27 19:33N 37°32' E 025°09'1616.2
2015-Jan-27 18:33N 37°42' E 024°53'4613.1
2015-Jan-27 15:03N 38°01' E 024°01'0 0.1
2015-Jan-27 10:16N 38°02' E 024°01'4215.1
2015-Jan-27 07:28N 37°44' E 024°50'1819.4
2015-Jan-27 06:33N 37°33' E 025°07'1111.3
2015-Jan-27 05:33N 37°28' E 025°20'0 0.0
2015-Jan-27 04:33N 37°28' E 025°20'0 0.0
2015-Jan-27 03:33N 37°28' E 025°20'0 0.0
2015-Jan-27 02:33N 37°28' E 025°20'0 0.0
2015-Jan-27 01:33N 37°28' E 025°20'0 0.0
2015-Jan-27 00:33N 37°28' E 025°20'0 0.0
2015-Jan-26 23:33N 37°28' E 025°20'0 0.0
2015-Jan-26 22:33N 37°28' E 025°20'0 0.0
2015-Jan-26 21:33N 37°28' E 025°20'8 8.2
2015-Jan-26 20:33N 37°31' E 025°10'1110.8
2015-Jan-26 19:34N 37°37' E 024°59'10 1.4
2015-Jan-26 12:25N 37°44' E 024°50'1719.4
2015-Jan-26 11:33N 37°33' E 025°06'1211.9
2015-Jan-26 10:33N 37°28' E 025°19'7 7.3
2015-Jan-26 09:33N 37°31' E 025°11'1414.1
2015-Jan-26 08:33N 37°40' E 024°57'7 0.4
2015-Jan-25 13:16N 37°43' E 024°50'1419.2
2015-Jan-25 12:33N 37°34' E 025°03'1313.0
2015-Jan-25 11:33N 37°28' E 025°17'2 1.8
2015-Jan-25 10:34N 37°28' E 025°19'9 8.9
2015-Jan-25 09:34N 37°32' E 025°10'1514.9
2015-Jan-25 08:33N 37°41' E 024°55'6 0.6
2015-Jan-24 23:32N 37°40' E 024°47'1818.1
2015-Jan-24 22:33N 37°31' E 025°07'1110.8
2015-Jan-24 21:33N 37°28' E 025°19'10 9.9
2015-Jan-24 20:34N 37°32' E 025°08'1716.7
2015-Jan-24 19:33N 37°43' E 024°52'17 3.1
2015-Jan-24 14:12N 37°53' E 024°35'7 8.8
2015-Jan-24 13:23N 37°52' E 024°44'1417.3
2015-Jan-24 12:33N 37°40' E 024°54'1515.0
2015-Jan-24 11:33N 37°32' E 025°10'9 8.9
2015-Jan-24 10:33N 37°28' E 025°19'9 9.0
2015-Jan-24 09:33N 37°32' E 025°10'1716.5
2015-Jan-24 08:33N 37°43' E 024°53'46 8.4
2015-Jan-24 03:09N 38°01' E 024°01'4810.5
2015-Jan-23 22:33N 37°38' E 024°54'1818.1
2015-Jan-23 21:33N 37°29' E 025°14'3 2.7
2015-Jan-23 20:33N 37°28' E 025°17'10 9.9
2015-Jan-23 19:33N 37°33' E 025°06'14 1.1
2015-Jan-23 07:33N 37°42' E 024°53'1616.3
2015-Jan-23 06:33N 37°32' E 025°10'9 8.8
2015-Jan-23 05:32N 37°28' E 025°20'0 0.0
2015-Jan-23 04:33N 37°28' E 025°20'0 0.0
2015-Jan-23 03:32N 37°28' E 025°20'0 0.0
2015-Jan-23 02:33N 37°28' E 025°20'0 0.0
2015-Jan-23 01:32N 37°28' E 025°20'0 0.0
2015-Jan-23 00:33N 37°28' E 025°20'0 0.0
2015-Jan-22 23:34N 37°28' E 025°20'0 0.0
2015-Jan-22 22:34N 37°28' E 025°20'0 0.0
2015-Jan-22 21:34N 37°28' E 025°20'9 9.2
2015-Jan-22 20:33N 37°32' E 025°09'9 9.3
2015-Jan-22 19:34N 37°36' E 024°59'35 3.4
2015-Jan-22 09:20N 37°56' E 024°22'1717.9
2015-Jan-22 08:22N 37°53' E 024°44'1011.5
2015-Jan-22 07:29N 37°44' E 024°50'1819.2
2015-Jan-22 06:33N 37°32' E 025°08'1010.1
2015-Jan-22 05:32N 37°28' E 025°20'0 0.0
2015-Jan-22 04:33N 37°28' E 025°20'0 0.0
2015-Jan-22 03:33N 37°28' E 025°20'0 0.0
2015-Jan-22 02:32N 37°28' E 025°20'0 0.0
2015-Jan-22 01:33N 37°28' E 025°20'0 0.0
2015-Jan-22 00:32N 37°28' E 025°20'0 0.0
2015-Jan-21 23:33N 37°28' E 025°20'0 0.0
2015-Jan-21 22:50N 37°28' E 025°20'0 0.0
2015-Jan-21 22:46N 37°28' E 025°20'0 0.0
2015-Jan-21 22:34N 37°28' E 025°20'0 0.0
2015-Jan-21 21:33N 37°28' E 025°20'1 0.9
2015-Jan-21 20:33N 37°28' E 025°18'10 9.7
2015-Jan-21 19:33N 37°32' E 025°08'1817.6
2015-Jan-21 18:33N 37°44' E 024°51'2813.4
2015-Jan-21 16:26N 37°56' E 024°19'15 3.8
2015-Jan-21 12:29N 38°01' E 024°01'43 8.8
2015-Jan-21 07:33N 37°44' E 024°51'1918.7
2015-Jan-21 06:33N 37°32' E 025°09'9 9.1
2015-Jan-21 05:33N 37°28' E 025°20'0 0.0
2015-Jan-21 04:33N 37°28' E 025°20'0 0.0
2015-Jan-21 03:33N 37°28' E 025°20'0 0.0
2015-Jan-21 02:33N 37°28' E 025°20'0 0.0
2015-Jan-21 01:33N 37°28' E 025°20'0 0.0
2015-Jan-21 00:33N 37°28' E 025°20'0 0.0
2015-Jan-20 23:33N 37°28' E 025°20'0 0.0
2015-Jan-20 22:33N 37°28' E 025°20'0 0.0
2015-Jan-20 21:33N 37°28' E 025°20'0 0.3
2015-Jan-20 20:33N 37°28' E 025°19'1110.6
2015-Jan-20 19:33N 37°32' E 025°07'1717.0
2015-Jan-20 18:33N 37°44' E 024°51'44 8.2
2015-Jan-20 13:14N 38°01' E 024°01'43 7.4
2015-Jan-20 07:29N 37°44' E 024°50'1819.5
2015-Jan-20 06:33N 37°32' E 025°08'1010.5
2015-Jan-20 05:33N 37°28' E 025°20'0 0.0
2015-Jan-20 04:33N 37°28' E 025°20'0 0.0
2015-Jan-20 03:33N 37°28' E 025°20'0 0.0
2015-Jan-20 02:34N 37°28' E 025°20'0 0.0
2015-Jan-20 01:33N 37°28' E 025°20'0 0.0
2015-Jan-20 00:33N 37°28' E 025°20'0 0.0
2015-Jan-19 23:33N 37°28' E 025°20'0 0.0
2015-Jan-19 22:33N 37°28' E 025°20'0 0.0
2015-Jan-19 21:33N 37°28' E 025°20'0 0.1
2015-Jan-19 20:33N 37°28' E 025°19'1110.8
2015-Jan-19 19:33N 37°32' E 025°07'1717.3
2015-Jan-19 18:33N 37°44' E 024°51'2713.2
2015-Jan-19 16:31N 37°56' E 024°20'13 2.1
2015-Jan-19 10:05N 38°00' E 024°04'1518.6
2015-Jan-19 09:15N 37°55' E 024°23'2413.4
2015-Jan-19 07:27N 37°44' E 024°50'1819.9
2015-Jan-19 06:33N 37°32' E 025°07'1110.8
2015-Jan-19 05:34N 37°28' E 025°20'0 0.0
2015-Jan-19 04:34N 37°28' E 025°20'0 0.0
2015-Jan-19 03:34N 37°28' E 025°20'0 0.0
2015-Jan-19 02:34N 37°28' E 025°20'0 0.0
2015-Jan-19 01:33N 37°28' E 025°20'0 0.0
2015-Jan-19 00:33N 37°28' E 025°20'0 0.0
2015-Jan-18 23:34N 37°28' E 025°20'0 0.0
2015-Jan-18 22:34N 37°28' E 025°20'0 0.0
2015-Jan-18 21:34N 37°28' E 025°20'0 0.0
2015-Jan-18 20:34N 37°28' E 025°20'1110.6
2015-Jan-18 19:33N 37°32' E 025°07'1717.2
2015-Jan-18 18:33N 37°44' E 024°51'6 0.9
2015-Jan-18 11:33N 37°39' E 024°56'1313.0
2015-Jan-18 10:33N 37°31' E 025°10'9 8.7
2015-Jan-18 09:34N 37°28' E 025°20'0 0.0
2015-Jan-18 08:32N 37°28' E 025°20'0 0.0
2015-Jan-18 07:34N 37°28' E 025°20'0 0.0
2015-Jan-18 06:34N 37°28' E 025°20'0 0.0
2015-Jan-18 05:34N 37°28' E 025°20'  

Dump ship's entire track history